Time;durP1;ratioP1;P1;durP2;ratioP2;P2;SDS_P1;SDS_P2;PMS_P1;PMS_P2;Temp;Humidity;BMP_temperature;BMP_pressure;BME280_temperature;BME280_humidity;BME280_pressure;Samples;Min_cycle;Max_cycle;Signal;HPM_P1;HPM_P2
2022/12/08 00:01:59;;;;;;;10.83;6.97;;;;;;;;;;4976297;28;20225;-68
2022/12/08 00:04:24;;;;;;;10.67;7.17;;;;;;;;;;4979387;28;20213;-68
2022/12/08 00:09:34;;;;;;;10.23;6.67;;;;;;;;;;5004278;28;20227;-68
2022/12/08 00:12:00;;;;;;;13.33;7.70;;;;;;;;;;4999589;28;20224;-68
2022/12/08 00:14:29;;;;;;;11.43;6.97;;;;;;;;;;4983655;28;20316;-68
2022/12/08 00:16:55;;;;;;;14.23;8.13;;;;;;;;;;4987366;28;20247;-69
2022/12/08 00:19:20;;;;;;;10.17;6.77;;;;;;;;;;4999935;28;21369;-68
2022/12/08 00:21:46;;;;;;;9.13;6.20;;;;;;;;;;4995883;28;20213;-68
2022/12/08 00:24:11;;;;;;;10.10;6.47;;;;;;;;;;4995525;28;20274;-68
2022/12/08 00:26:37;;;;;;;11.83;6.47;;;;;;;;;;4998624;28;20239;-68
2022/12/08 00:29:02;;;;;;;10.73;6.27;;;;;;;;;;5003580;28;20234;-68
2022/12/08 00:31:27;;;;;;;9.40;6.10;;;;;;;;;;5004031;28;20213;-68
2022/12/08 00:33:53;;;;;;;9.53;5.90;;;;;;;;;;5003240;28;20219;-68
2022/12/08 00:36:18;;;;;;;9.27;6.20;;;;;;;;;;5003156;28;20232;-68
2022/12/08 00:38:43;;;;;;;9.60;6.33;;;;;;;;;;4993878;28;20742;-68
2022/12/08 00:41:11;;;;;;;11.60;7.00;;;;;;;;;;5000935;28;20226;-68
2022/12/08 00:43:36;;;;;;;11.17;6.73;;;;;;;;;;4996485;28;20232;-68
2022/12/08 00:46:01;;;;;;;10.60;7.17;;;;;;;;;;4995141;28;20351;-67
2022/12/08 00:48:26;;;;;;;9.60;6.40;;;;;;;;;;4990958;28;20728;-68
2022/12/08 00:50:52;;;;;;;11.53;7.63;;;;;;;;;;4984347;28;20303;-69
2022/12/08 00:53:17;;;;;;;8.93;6.33;;;;;;;;;;4983716;28;20574;-68
2022/12/08 00:55:42;;;;;;;9.13;6.27;;;;;;;;;;4998589;28;20259;-69
2022/12/08 00:58:07;;;;;;;12.53;7.23;;;;;;;;;;4983661;28;20212;-68
2022/12/08 01:00:33;;;;;;;10.83;5.97;;;;;;;;;;4984387;28;20308;-68
2022/12/08 01:02:58;;;;;;;8.60;5.63;;;;;;;;;;4983047;28;20232;-69
2022/12/08 01:05:24;;;;;;;8.33;5.77;;;;;;;;;;4993002;28;20680;-68
2022/12/08 01:07:50;;;;;;;8.90;5.30;;;;;;;;;;4995212;28;20734;-68
2022/12/08 01:10:15;;;;;;;10.37;6.10;;;;;;;;;;4988602;28;20228;-68
2022/12/08 01:12:41;;;;;;;7.40;5.50;;;;;;;;;;4981643;28;20220;-68
2022/12/08 01:15:06;;;;;;;8.87;6.17;;;;;;;;;;4983237;28;20569;-68
2022/12/08 01:17:32;;;;;;;9.50;5.67;;;;;;;;;;4983336;28;20755;-68
2022/12/08 01:19:57;;;;;;;8.43;5.90;;;;;;;;;;4983861;28;20221;-69
2022/12/08 01:22:22;;;;;;;9.93;5.60;;;;;;;;;;5002513;28;20223;-68
2022/12/08 01:24:47;;;;;;;7.97;5.30;;;;;;;;;;5002179;28;20250;-69
2022/12/08 01:27:14;;;;;;;8.20;4.90;;;;;;;;;;4983818;28;20614;-68
2022/12/08 01:29:39;;;;;;;7.43;4.90;;;;;;;;;;4976297;28;20316;-68
2022/12/08 01:32:04;;;;;;;7.47;4.83;;;;;;;;;;4975241;28;20553;-68
2022/12/08 01:34:30;;;;;;;7.67;4.90;;;;;;;;;;4978852;28;20225;-68
2022/12/08 01:36:55;;;;;;;8.47;5.17;;;;;;;;;;4983179;28;20237;-68
2022/12/08 01:39:20;;;;;;;8.33;5.00;;;;;;;;;;4982900;28;20678;-68
2022/12/08 01:41:46;;;;;;;8.20;5.20;;;;;;;;;;4983327;28;20217;-68
2022/12/08 01:44:11;;;;;;;9.37;4.80;;;;;;;;;;5001378;28;20683;-68
2022/12/08 01:46:37;;;;;;;7.30;4.63;;;;;;;;;;5002704;28;20215;-68
2022/12/08 01:49:04;;;;;;;9.40;5.40;;;;;;;;;;5001722;28;20208;-68
2022/12/08 01:51:30;;;;;;;8.60;5.10;;;;;;;;;;4992983;28;20208;-68
2022/12/08 01:53:55;;;;;;;7.87;5.73;;;;;;;;;;4994327;28;20217;-69
2022/12/08 01:56:25;;;;;;;9.80;5.97;;;;;;;;;;4986716;28;20575;-69
2022/12/08 01:58:50;;;;;;;8.13;5.83;;;;;;;;;;4987400;28;20220;-69
2022/12/08 02:01:16;;;;;;;9.03;6.20;;;;;;;;;;5000335;28;20598;-68
2022/12/08 02:03:42;;;;;;;10.40;6.83;;;;;;;;;;5005071;28;20228;-69
2022/12/08 02:06:07;;;;;;;10.33;6.93;;;;;;;;;;5003790;28;20231;-68
2022/12/08 02:08:33;;;;;;;10.57;7.03;;;;;;;;;;5006583;28;20216;-68
2022/12/08 02:10:58;;;;;;;12.67;7.50;;;;;;;;;;4990677;28;20271;-69
2022/12/08 02:13:24;;;;;;;11.03;7.77;;;;;;;;;;4980374;28;20641;-68
2022/12/08 02:15:53;;;;;;;13.07;8.03;;;;;;;;;;4988361;28;20232;-68
2022/12/08 02:18:27;;;;;;;11.27;7.57;;;;;;;;;;4987364;28;20224;-68
2022/12/08 02:20:59;;;;;;;13.07;8.37;;;;;;;;;;5002478;28;20234;-69
2022/12/08 02:23:25;;;;;;;12.20;7.73;;;;;;;;;;5004511;28;20216;-68
2022/12/08 02:25:55;;;;;;;11.43;7.87;;;;;;;;;;5006351;28;20240;-69
2022/12/08 02:28:27;;;;;;;10.73;8.10;;;;;;;;;;5007747;28;20227;-68
2022/12/08 02:31:10;;;;;;;11.80;8.40;;;;;;;;;;4999804;28;20221;-68
2022/12/08 02:33:39;;;;;;;15.37;9.97;;;;;;;;;;4994026;28;20213;-68
2022/12/08 02:36:06;;;;;;;13.10;9.00;;;;;;;;;;4995898;28;20229;-68
2022/12/08 02:38:36;;;;;;;12.07;8.20;;;;;;;;;;4995184;28;20287;-68
2022/12/08 02:41:23;;;;;;;11.53;8.17;;;;;;;;;;4993853;28;20221;-67
2022/12/08 02:43:52;;;;;;;12.37;8.40;;;;;;;;;;4994852;28;20228;-69
2022/12/08 02:46:25;;;;;;;10.07;8.43;;;;;;;;;;4994410;28;20205;-69
2022/12/08 02:48:50;;;;;;;15.93;9.63;;;;;;;;;;4994257;28;20217;-69
2022/12/08 02:51:15;;;;;;;13.60;8.90;;;;;;;;;;4994323;28;20552;-68
2022/12/08 02:53:40;;;;;;;13.17;9.40;;;;;;;;;;4995987;28;20217;-68
2022/12/08 02:56:29;;;;;;;12.73;9.17;;;;;;;;;;4998539;28;20311;-68
2022/12/08 02:59:00;;;;;;;14.50;9.50;;;;;;;;;;5009990;28;20225;-68
2022/12/08 03:01:35;;;;;;;12.40;8.33;;;;;;;;;;5013158;28;20231;-68
2022/12/08 03:04:03;;;;;;;14.83;9.90;;;;;;;;;;5013606;28;20267;-67
2022/12/08 03:06:31;;;;;;;11.50;8.50;;;;;;;;;;5015327;28;20217;-68
2022/12/08 03:08:57;;;;;;;11.73;8.47;;;;;;;;;;5013286;28;20259;-69
2022/12/08 03:11:33;;;;;;;13.70;9.23;;;;;;;;;;5000305;28;20224;-69
2022/12/08 03:13:59;;;;;;;12.77;9.30;;;;;;;;;;4995173;28;20270;-68
2022/12/08 03:16:25;;;;;;;14.27;9.93;;;;;;;;;;5007275;28;20216;-68
2022/12/08 03:18:55;;;;;;;11.73;9.13;;;;;;;;;;5015113;28;20299;-68
2022/12/08 03:21:20;;;;;;;12.43;8.90;;;;;;;;;;5014836;28;20224;-69
2022/12/08 03:23:45;;;;;;;11.20;8.37;;;;;;;;;;5014221;28;20224;-69
2022/12/08 03:26:12;;;;;;;12.53;8.77;;;;;;;;;;5014714;28;20212;-68
2022/12/08 03:28:37;;;;;;;11.63;8.40;;;;;;;;;;5005876;28;20804;-69
2022/12/08 03:31:03;;;;;;;13.27;8.33;;;;;;;;;;4995844;28;20252;-68
2022/12/08 03:33:29;;;;;;;11.60;7.63;;;;;;;;;;4997286;28;20221;-68
2022/12/08 03:35:55;;;;;;;10.37;7.80;;;;;;;;;;4993958;28;20221;-68
2022/12/08 03:38:20;;;;;;;11.33;7.93;;;;;;;;;;4992521;28;20621;-68
2022/12/08 03:43:29;;;;;;;10.13;7.17;;;;;;;;;;4994716;28;20259;-69
2022/12/08 03:45:54;;;;;;;10.37;7.57;;;;;;;;;;4994237;28;20221;-69
2022/12/08 03:48:20;;;;;;;9.67;6.87;;;;;;;;;;4994559;28;20307;-68
2022/12/08 03:50:45;;;;;;;10.40;6.90;;;;;;;;;;4994304;28;20224;-68
2022/12/08 03:53:10;;;;;;;10.37;7.60;;;;;;;;;;4994424;28;20228;-68
2022/12/08 03:55:35;;;;;;;9.43;6.77;;;;;;;;;;4994923;28;20229;-68
2022/12/08 03:58:01;;;;;;;10.53;7.40;;;;;;;;;;4977426;28;20218;-67
2022/12/08 04:00:26;;;;;;;11.50;7.90;;;;;;;;;;5001352;28;20212;-68
2022/12/08 04:02:51;;;;;;;10.37;6.90;;;;;;;;;;5004980;28;20259;-69
2022/12/08 04:05:17;;;;;;;10.77;6.80;;;;;;;;;;5013019;28;20694;-69
2022/12/08 04:07:42;;;;;;;9.07;6.83;;;;;;;;;;5014570;28;20243;-69
2022/12/08 04:10:08;;;;;;;8.27;6.77;;;;;;;;;;5013898;28;20216;-68
2022/12/08 04:12:33;;;;;;;10.67;7.03;;;;;;;;;;5013448;28;20295;-69
2022/12/08 04:14:58;;;;;;;10.03;6.70;;;;;;;;;;5012257;28;20287;-69
2022/12/08 04:17:23;;;;;;;11.00;6.00;;;;;;;;;;4994050;28;20205;-69
2022/12/08 04:19:49;;;;;;;9.30;6.60;;;;;;;;;;4993734;28;20221;-69
2022/12/08 04:22:14;;;;;;;8.40;5.70;;;;;;;;;;4994140;28;20224;-68
2022/12/08 04:24:39;;;;;;;6.93;5.07;;;;;;;;;;4993611;28;20236;-69
2022/12/08 04:27:04;;;;;;;7.73;5.27;;;;;;;;;;4993264;28;20217;-68
2022/12/08 04:29:30;;;;;;;7.17;5.20;;;;;;;;;;4994184;28;20633;-69
2022/12/08 04:31:55;;;;;;;7.73;5.57;;;;;;;;;;4994023;28;20209;-69
2022/12/08 04:34:20;;;;;;;8.97;5.17;;;;;;;;;;4992879;28;20652;-68
2022/12/08 04:36:45;;;;;;;9.57;4.90;;;;;;;;;;4994250;28;20217;-69
2022/12/08 04:39:11;;;;;;;6.73;4.07;;;;;;;;;;4993648;28;20263;-68
2022/12/08 04:41:36;;;;;;;6.70;3.70;;;;;;;;;;4993155;28;20209;-69
2022/12/08 04:44:01;;;;;;;6.30;3.90;;;;;;;;;;4993667;28;20225;-68
2022/12/08 04:46:26;;;;;;;7.77;3.47;;;;;;;;;;4993633;28;20224;-68
2022/12/08 04:48:52;;;;;;;6.43;3.00;;;;;;;;;;4993114;28;20233;-68
2022/12/08 04:51:17;;;;;;;5.03;2.77;;;;;;;;;;4993574;28;20307;-68
2022/12/08 04:53:43;;;;;;;5.17;2.83;;;;;;;;;;4993753;28;20685;-68
2022/12/08 04:56:15;;;;;;;5.13;2.50;;;;;;;;;;4996529;28;20220;-68
2022/12/08 04:58:40;;;;;;;4.43;2.50;;;;;;;;;;5012911;28;20746;-69
2022/12/08 05:01:05;;;;;;;4.53;2.40;;;;;;;;;;4992331;28;20378;-68
2022/12/08 05:03:31;;;;;;;4.60;2.17;;;;;;;;;;4993485;28;20316;-69
2022/12/08 05:05:58;;;;;;;2.70;2.00;;;;;;;;;;4993464;28;20247;-69
2022/12/08 05:08:23;;;;;;;2.80;1.70;;;;;;;;;;4992789;28;20266;-68
2022/12/08 05:10:48;;;;;;;2.77;1.80;;;;;;;;;;4993402;28;20244;-69
2022/12/08 05:13:13;;;;;;;3.50;1.77;;;;;;;;;;4993250;28;20209;-69
2022/12/08 05:15:39;;;;;;;3.40;1.97;;;;;;;;;;4992464;28;20253;-68
2022/12/08 05:18:05;;;;;;;3.40;1.80;;;;;;;;;;4992711;28;20762;-68
2022/12/08 05:20:30;;;;;;;3.83;2.10;;;;;;;;;;4991994;28;20224;-69
2022/12/08 05:22:56;;;;;;;3.40;1.80;;;;;;;;;;4992818;28;20225;-68
2022/12/08 05:25:21;;;;;;;3.20;1.93;;;;;;;;;;4992835;28;20255;-68
2022/12/08 05:27:46;;;;;;;2.97;2.10;;;;;;;;;;4993350;28;20219;-68
2022/12/08 05:30:11;;;;;;;3.00;2.40;;;;;;;;;;4992123;28;20718;-68
2022/12/08 05:32:37;;;;;;;5.30;2.50;;;;;;;;;;4993003;28;20703;-68
2022/12/08 05:35:02;;;;;;;3.60;2.20;;;;;;;;;;4992764;28;20228;-68
2022/12/08 05:37:27;;;;;;;4.50;2.47;;;;;;;;;;4992390;28;20212;-68
2022/12/08 05:39:53;;;;;;;3.87;2.40;;;;;;;;;;4992962;28;20201;-69
2022/12/08 05:42:18;;;;;;;3.63;2.80;;;;;;;;;;4992601;28;20292;-68
2022/12/08 05:44:43;;;;;;;4.93;2.90;;;;;;;;;;4992529;28;20789;-68
2022/12/08 05:47:08;;;;;;;4.33;3.00;;;;;;;;;;4992432;28;20217;-69
2022/12/08 05:49:34;;;;;;;3.73;3.00;;;;;;;;;;4993023;28;20570;-69
2022/12/08 05:51:59;;;;;;;5.33;3.30;;;;;;;;;;4992155;28;20231;-69
2022/12/08 05:54:24;;;;;;;5.53;3.23;;;;;;;;;;4992495;28;20221;-68
2022/12/08 05:56:50;;;;;;;4.93;3.83;;;;;;;;;;4989189;28;20231;-70
2022/12/08 05:59:15;;;;;;;5.43;3.90;;;;;;;;;;4982957;28;20762;-69
2022/12/08 06:01:41;;;;;;;6.57;4.60;;;;;;;;;;4983664;28;20217;-69
2022/12/08 06:04:06;;;;;;;6.10;4.53;;;;;;;;;;4977571;28;20712;-69
2022/12/08 06:06:33;;;;;;;8.07;4.90;;;;;;;;;;4974848;28;20537;-69
2022/12/08 06:08:58;;;;;;;5.10;4.00;;;;;;;;;;4994152;28;20628;-70
2022/12/08 06:11:25;;;;;;;5.13;3.70;;;;;;;;;;4998586;28;20212;-69
2022/12/08 06:13:50;;;;;;;6.17;3.33;;;;;;;;;;4983062;28;20227;-70
2022/12/08 06:16:16;;;;;;;3.93;2.93;;;;;;;;;;4982500;28;20591;-69
2022/12/08 06:18:41;;;;;;;3.90;2.73;;;;;;;;;;4982234;28;20751;-69
2022/12/08 06:21:07;;;;;;;4.20;2.73;;;;;;;;;;4982654;28;20221;-69
2022/12/08 06:23:32;;;;;;;2.80;2.23;;;;;;;;;;4983381;28;20213;-69
2022/12/08 06:25:59;;;;;;;4.70;1.77;;;;;;;;;;4979785;28;20221;-69
2022/12/08 06:28:25;;;;;;;3.10;1.90;;;;;;;;;;4975466;28;20692;-69
2022/12/08 06:30:50;;;;;;;4.23;2.43;;;;;;;;;;4975294;28;20275;-70
2022/12/08 06:33:15;;;;;;;3.17;1.80;;;;;;;;;;4976909;28;20225;-69
2022/12/08 06:35:41;;;;;;;2.30;1.50;;;;;;;;;;4983012;28;20275;-69
2022/12/08 06:38:06;;;;;;;3.27;1.63;;;;;;;;;;4982609;28;20272;-69
2022/12/08 06:40:31;;;;;;;3.43;1.80;;;;;;;;;;4987715;28;20205;-67
2022/12/08 06:42:56;;;;;;;3.83;2.00;;;;;;;;;;4981188;28;20243;-70
2022/12/08 06:45:22;;;;;;;2.40;2.00;;;;;;;;;;4972212;28;20218;-70
2022/12/08 06:47:47;;;;;;;4.97;2.10;;;;;;;;;;4963636;28;20230;-70
2022/12/08 06:50:12;;;;;;;4.80;2.10;;;;;;;;;;4966571;28;20218;-70
2022/12/08 06:52:39;;;;;;;4.70;2.10;;;;;;;;;;4960371;28;20603;-70
2022/12/08 06:55:05;;;;;;;2.80;2.00;;;;;;;;;;4958214;28;20332;-70
2022/12/08 06:57:30;;;;;;;4.63;2.00;;;;;;;;;;4959208;28;20765;-70
2022/12/08 06:59:55;;;;;;;2.87;2.10;;;;;;;;;;4966174;28;20238;-70
2022/12/08 07:02:21;;;;;;;2.70;2.00;;;;;;;;;;4965341;28;20222;-70
2022/12/08 07:04:46;;;;;;;3.93;2.20;;;;;;;;;;4974594;28;20243;-70
2022/12/08 07:07:11;;;;;;;5.00;2.20;;;;;;;;;;4975570;28;20221;-68
2022/12/08 07:09:37;;;;;;;3.30;2.00;;;;;;;;;;4982335;28;20208;-70
2022/12/08 07:12:03;;;;;;;4.17;2.10;;;;;;;;;;4988510;28;20237;-68
2022/12/08 07:14:29;;;;;;;3.97;2.40;;;;;;;;;;4995512;28;21023;-68
2022/12/08 07:16:54;;;;;;;3.30;2.00;;;;;;;;;;4995080;28;20621;-70
2022/12/08 07:19:20;;;;;;;3.03;2.00;;;;;;;;;;4994902;28;20220;-71
2022/12/08 07:21:45;;;;;;;3.43;1.90;;;;;;;;;;4993685;28;20384;-70
2022/12/08 07:24:10;;;;;;;3.47;1.90;;;;;;;;;;4996293;28;20212;-69
2022/12/08 07:26:36;;;;;;;3.77;1.80;;;;;;;;;;5005725;28;20213;-69
2022/12/08 07:29:01;;;;;;;2.57;1.53;;;;;;;;;;4998562;28;20653;-69
2022/12/08 07:31:27;;;;;;;2.27;1.70;;;;;;;;;;5004607;28;20219;-69
2022/12/08 07:33:53;;;;;;;4.33;1.87;;;;;;;;;;5004397;28;20209;-70
2022/12/08 07:36:18;;;;;;;2.47;1.60;;;;;;;;;;5004046;28;20232;-69
2022/12/08 07:38:43;;;;;;;3.43;1.90;;;;;;;;;;5003398;28;20205;-71
2022/12/08 07:41:10;;;;;;;2.20;1.77;;;;;;;;;;5003755;28;20206;-70
2022/12/08 07:43:36;;;;;;;2.70;1.80;;;;;;;;;;5003043;28;20200;-70
2022/12/08 07:46:01;;;;;;;3.23;2.10;;;;;;;;;;5004922;28;20205;-69
2022/12/08 07:48:26;;;;;;;4.70;2.70;;;;;;;;;;5002815;28;20420;-70
2022/12/08 07:50:58;;;;;;;3.60;2.30;;;;;;;;;;5003285;28;20251;-70
2022/12/08 07:53:23;;;;;;;2.93;2.23;;;;;;;;;;5004677;28;20743;-70
2022/12/08 07:55:48;;;;;;;3.57;2.10;;;;;;;;;;5003668;28;20288;-70
2022/12/08 07:58:14;;;;;;;3.43;2.40;;;;;;;;;;5002519;28;20208;-69
2022/12/08 08:00:39;;;;;;;4.00;2.87;;;;;;;;;;5003915;28;20571;-70
2022/12/08 08:03:04;;;;;;;3.60;2.20;;;;;;;;;;5003660;28;20292;-69
2022/12/08 08:05:30;;;;;;;3.80;2.47;;;;;;;;;;5003586;28;20217;-70
2022/12/08 08:07:55;;;;;;;3.80;2.33;;;;;;;;;;5003174;28;20232;-69
2022/12/08 08:10:20;;;;;;;3.67;2.43;;;;;;;;;;5004377;28;20208;-68
2022/12/08 08:12:46;;;;;;;3.83;2.40;;;;;;;;;;5002722;28;20233;-70
2022/12/08 08:15:11;;;;;;;3.63;2.60;;;;;;;;;;5003884;28;20225;-69
2022/12/08 08:17:37;;;;;;;6.40;2.70;;;;;;;;;;5002211;28;20316;-70
2022/12/08 08:20:05;;;;;;;5.23;2.60;;;;;;;;;;5003346;28;20562;-68
2022/12/08 08:22:30;;;;;;;4.03;2.40;;;;;;;;;;5003508;28;20249;-69
2022/12/08 08:24:56;;;;;;;4.33;2.27;;;;;;;;;;5002210;28;20243;-69
2022/12/08 08:27:21;;;;;;;2.83;2.00;;;;;;;;;;5004239;28;20678;-69
2022/12/08 08:29:46;;;;;;;3.73;2.17;;;;;;;;;;5002751;28;20216;-68
2022/12/08 08:32:12;;;;;;;3.97;2.60;;;;;;;;;;5002536;28;20223;-68
2022/12/08 08:34:37;;;;;;;6.43;3.13;;;;;;;;;;5004201;28;20291;-69
2022/12/08 08:37:02;;;;;;;5.83;2.40;;;;;;;;;;4997501;28;20217;-68
2022/12/08 08:39:29;;;;;;;5.33;2.30;;;;;;;;;;4994311;28;20213;-67
2022/12/08 08:41:54;;;;;;;5.57;2.53;;;;;;;;;;4999965;28;20217;-68
2022/12/08 08:44:19;;;;;;;4.67;2.40;;;;;;;;;;4994093;28;20271;-67
2022/12/08 08:46:44;;;;;;;3.77;1.97;;;;;;;;;;4993059;28;20224;-67
2022/12/08 08:49:10;;;;;;;3.10;2.07;;;;;;;;;;4993449;28;20275;-68
2022/12/08 08:51:35;;;;;;;3.20;1.90;;;;;;;;;;4993562;28;20550;-67
2022/12/08 08:54:00;;;;;;;4.53;2.30;;;;;;;;;;4992490;28;20216;-67
2022/12/08 08:56:25;;;;;;;5.00;2.23;;;;;;;;;;4993064;28;20217;-68
2022/12/08 08:58:51;;;;;;;4.43;2.53;;;;;;;;;;4993819;28;20227;-68
2022/12/08 09:01:17;;;;;;;4.97;2.30;;;;;;;;;;4992735;28;20576;-68
2022/12/08 09:03:43;;;;;;;4.87;2.00;;;;;;;;;;4991504;28;20767;-69
2022/12/08 09:06:08;;;;;;;5.37;2.00;;;;;;;;;;5001146;28;20288;-68
2022/12/08 09:08:33;;;;;;;3.07;1.90;;;;;;;;;;5012406;28;20275;-69
2022/12/08 09:10:58;;;;;;;4.03;2.60;;;;;;;;;;5012762;28;20228;-68
2022/12/08 09:13:24;;;;;;;5.23;2.33;;;;;;;;;;5012311;28;20221;-68
2022/12/08 09:15:49;;;;;;;4.43;2.63;;;;;;;;;;5001579;28;20299;-68
2022/12/08 09:18:14;;;;;;;5.27;2.77;;;;;;;;;;4992943;28;20563;-69
2022/12/08 09:20:39;;;;;;;4.93;1.60;;;;;;;;;;5004003;28;20240;-68
2022/12/08 09:23:05;;;;;;;5.13;2.17;;;;;;;;;;5011299;28;20232;-68
2022/12/08 09:25:30;;;;;;;4.00;2.10;;;;;;;;;;5012944;28;20217;-66
2022/12/08 09:27:55;;;;;;;3.90;1.80;;;;;;;;;;5012603;28;20216;-70
2022/12/08 09:30:21;;;;;;;4.27;2.00;;;;;;;;;;5011548;28;20219;-69
2022/12/08 09:32:46;;;;;;;3.90;2.40;;;;;;;;;;5012860;28;20303;-70
2022/12/08 09:35:11;;;;;;;3.97;2.23;;;;;;;;;;5011726;28;20235;-70
2022/12/08 09:37:37;;;;;;;3.93;2.53;;;;;;;;;;5012085;28;20699;-70
2022/12/08 09:40:04;;;;;;;4.40;2.80;;;;;;;;;;5012311;28;20571;-69
2022/12/08 09:42:32;;;;;;;5.23;2.80;;;;;;;;;;5011604;28;20243;-69
2022/12/08 09:45:01;;;;;;;4.87;2.73;;;;;;;;;;5011464;28;20250;-69
2022/12/08 09:47:28;;;;;;;4.97;3.10;;;;;;;;;;5011088;28;20220;-69
2022/12/08 09:49:53;;;;;;;6.60;3.10;;;;;;;;;;5010533;28;20208;-69
2022/12/08 09:52:20;;;;;;;3.13;2.30;;;;;;;;;;5011990;28;20224;-69
2022/12/08 09:54:45;;;;;;;3.53;2.20;;;;;;;;;;5012435;28;20231;-69
2022/12/08 09:57:12;;;;;;;4.70;2.50;;;;;;;;;;4988824;28;20592;-68
2022/12/08 09:59:37;;;;;;;4.10;2.10;;;;;;;;;;4986540;28;20339;-69
2022/12/08 10:02:08;;;;;;;3.17;1.93;;;;;;;;;;5002989;28;20299;-69
2022/12/08 10:04:33;;;;;;;3.90;2.10;;;;;;;;;;5002379;28;20287;-69
2022/12/08 10:07:00;;;;;;;5.10;1.90;;;;;;;;;;5012485;28;20228;-69
2022/12/08 10:09:26;;;;;;;5.50;2.17;;;;;;;;;;5003663;28;20213;-69
2022/12/08 10:11:59;;;;;;;3.43;2.10;;;;;;;;;;5011325;28;20274;-69
2022/12/08 10:14:29;;;;;;;3.50;2.00;;;;;;;;;;5012090;28;20215;-69
2022/12/08 10:16:56;;;;;;;4.03;2.47;;;;;;;;;;4991708;28;20212;-69
2022/12/08 10:19:21;;;;;;;3.83;2.30;;;;;;;;;;4991389;28;20221;-69
2022/12/08 10:21:47;;;;;;;3.60;2.30;;;;;;;;;;4992683;28;20214;-69
2022/12/08 10:24:23;;;;;;;3.87;2.10;;;;;;;;;;5008892;28;20255;-69
2022/12/08 10:26:48;;;;;;;4.30;2.30;;;;;;;;;;5015066;28;20216;-69
2022/12/08 10:29:14;;;;;;;5.13;2.07;;;;;;;;;;5015664;28;20303;-69
2022/12/08 10:31:39;;;;;;;3.07;1.87;;;;;;;;;;5015281;28;20668;-69
2022/12/08 10:34:13;;;;;;;4.73;1.90;;;;;;;;;;5015760;28;20244;-69
2022/12/08 10:36:45;;;;;;;3.57;2.40;;;;;;;;;;5015869;28;20229;-69
2022/12/08 10:39:20;;;;;;;4.17;2.50;;;;;;;;;;5014618;28;20303;-69
2022/12/08 10:41:45;;;;;;;2.73;1.83;;;;;;;;;;5006159;28;20296;-69
2022/12/08 10:44:10;;;;;;;3.27;2.07;;;;;;;;;;5015377;28;20299;-69
2022/12/08 10:46:36;;;;;;;2.77;1.77;;;;;;;;;;5005389;28;20221;-69
2022/12/08 10:49:02;;;;;;;3.90;2.20;;;;;;;;;;5005922;28;20211;-68
2022/12/08 10:51:28;;;;;;;5.10;2.30;;;;;;;;;;5015767;28;20219;-69
2022/12/08 10:53:54;;;;;;;3.67;2.13;;;;;;;;;;5014858;28;20216;-69
2022/12/08 10:56:19;;;;;;;4.03;2.20;;;;;;;;;;5008924;28;20311;-69
2022/12/08 10:58:45;;;;;;;4.53;2.20;;;;;;;;;;4995478;28;20624;-69
2022/12/08 11:01:17;;;;;;;4.27;2.43;;;;;;;;;;5014009;28;20351;-70
2022/12/08 11:03:43;;;;;;;3.40;2.17;;;;;;;;;;4995863;28;20225;-72
2022/12/08 11:06:19;;;;;;;4.03;2.40;;;;;;;;;;4995281;28;20241;-68
2022/12/08 11:08:46;;;;;;;5.10;2.20;;;;;;;;;;4995017;28;20212;-69
2022/12/08 11:11:12;;;;;;;3.47;2.27;;;;;;;;;;4993443;28;20220;-69
2022/12/08 11:13:39;;;;;;;3.27;2.50;;;;;;;;;;4999749;28;20291;-68
2022/12/08 11:16:04;;;;;;;2.97;1.97;;;;;;;;;;5002680;28;20700;-67
2022/12/08 11:18:31;;;;;;;3.17;2.07;;;;;;;;;;4994255;28;20217;-68
2022/12/08 11:20:58;;;;;;;3.97;2.37;;;;;;;;;;4993643;28;20225;-68
2022/12/08 11:23:24;;;;;;;3.37;2.30;;;;;;;;;;4993781;28;20217;-68
2022/12/08 11:25:49;;;;;;;3.47;2.20;;;;;;;;;;4994754;28;20300;-68
2022/12/08 11:28:14;;;;;;;3.73;2.17;;;;;;;;;;4994599;28;20308;-67
2022/12/08 11:30:41;;;;;;;2.80;2.00;;;;;;;;;;4994311;28;20213;-68
2022/12/08 11:33:14;;;;;;;3.97;2.45;;;;;;;;;;4994845;28;20244;-68
2022/12/08 11:35:40;;;;;;;3.73;2.33;;;;;;;;;;4992982;28;20715;-68
2022/12/08 11:38:10;;;;;;;2.93;1.97;;;;;;;;;;4994792;28;20228;-68
2022/12/08 11:40:36;;;;;;;3.63;2.10;;;;;;;;;;4993185;28;20220;-68
2022/12/08 11:43:07;;;;;;;2.90;2.03;;;;;;;;;;4992713;28;20760;-67
2022/12/08 11:45:32;;;;;;;3.00;2.10;;;;;;;;;;4995157;28;20248;-68
2022/12/08 11:48:06;;;;;;;4.23;2.17;;;;;;;;;;4995103;28;20209;-68
2022/12/08 11:50:38;;;;;;;6.03;2.70;;;;;;;;;;4973171;28;20206;-68
2022/12/08 11:53:03;;;;;;;3.60;2.53;;;;;;;;;;4973763;28;20275;-67
2022/12/08 11:55:31;;;;;;;3.27;2.30;;;;;;;;;;4974980;28;20741;-68
2022/12/08 11:57:58;;;;;;;2.53;2.13;;;;;;;;;;4999635;28;20217;-68
2022/12/08 12:00:23;;;;;;;4.27;2.50;;;;;;;;;;4998283;28;20672;-68
2022/12/08 12:02:50;;;;;;;5.30;2.37;;;;;;;;;;4994740;28;20296;-68
2022/12/08 12:05:25;;;;;;;3.10;2.20;;;;;;;;;;4993416;28;20228;-67
2022/12/08 12:07:58;;;;;;;3.17;2.47;;;;;;;;;;4993375;28;20212;-68
2022/12/08 12:10:25;;;;;;;6.10;2.60;;;;;;;;;;4993106;28;20213;-68
2022/12/08 12:13:03;;;;;;;3.87;2.30;;;;;;;;;;4993241;28;20315;-68
2022/12/08 12:15:36;;;;;;;3.67;2.80;;;;;;;;;;4998303;28;20587;-68
2022/12/08 12:18:10;;;;;;;3.30;2.40;;;;;;;;;;5011633;28;20298;-67
2022/12/08 12:20:37;;;;;;;3.17;2.30;;;;;;;;;;5012899;28;20270;-68
2022/12/08 12:23:05;;;;;;;4.03;2.30;;;;;;;;;;5013481;28;20215;-67
2022/12/08 12:25:31;;;;;;;5.13;2.77;;;;;;;;;;5011510;28;20216;-68
2022/12/08 12:27:57;;;;;;;3.67;2.30;;;;;;;;;;5013737;28;20219;-68
2022/12/08 12:30:23;;;;;;;3.97;2.20;;;;;;;;;;5012174;28;20219;-67
2022/12/08 12:32:54;;;;;;;4.13;2.10;;;;;;;;;;5011623;28;20224;-68
2022/12/08 12:35:21;;;;;;;3.17;1.80;;;;;;;;;;5013292;28;20319;-67
2022/12/08 12:37:47;;;;;;;3.57;1.73;;;;;;;;;;5012339;28;20684;-68
2022/12/08 12:40:17;;;;;;;4.67;1.70;;;;;;;;;;5010925;28;20208;-67
2022/12/08 12:42:46;;;;;;;3.07;1.67;;;;;;;;;;5013267;28;20230;-67
2022/12/08 12:45:17;;;;;;;3.23;1.70;;;;;;;;;;5010844;28;20212;-67
2022/12/08 12:47:43;;;;;;;3.17;1.50;;;;;;;;;;5013443;28;20274;-68
2022/12/08 12:50:09;;;;;;;3.33;1.40;;;;;;;;;;5013060;28;20244;-67
2022/12/08 12:52:36;;;;;;;2.83;1.40;;;;;;;;;;5011428;28;20239;-67
2022/12/08 12:55:01;;;;;;;3.53;1.43;;;;;;;;;;5012755;28;20224;-66
2022/12/08 12:57:35;;;;;;;3.37;1.50;;;;;;;;;;4998140;28;20224;-67
2022/12/08 13:00:00;;;;;;;3.50;1.50;;;;;;;;;;5003645;28;20217;-67
2022/12/08 13:02:26;;;;;;;2.17;1.40;;;;;;;;;;4993229;28;20213;-68
2022/12/08 13:04:53;;;;;;;3.57;2.30;;;;;;;;;;5001105;28;20248;-67
2022/12/08 13:07:20;;;;;;;4.70;1.97;;;;;;;;;;4992529;28;20232;-67
2022/12/08 13:09:45;;;;;;;3.07;1.80;;;;;;;;;;4992316;28;20348;-67
2022/12/08 13:12:11;;;;;;;3.43;1.70;;;;;;;;;;4991622;28;20229;-67
2022/12/08 13:14:38;;;;;;;3.30;1.60;;;;;;;;;;4992524;28;20224;-68
2022/12/08 13:17:04;;;;;;;5.13;1.80;;;;;;;;;;4995734;28;20212;-67
2022/12/08 13:19:30;;;;;;;5.67;2.10;;;;;;;;;;5003383;28;20262;-68
2022/12/08 13:21:55;;;;;;;3.13;1.60;;;;;;;;;;5000743;28;20208;-68
2022/12/08 13:24:26;;;;;;;4.30;2.00;;;;;;;;;;5010034;28;20251;-67
2022/12/08 13:27:03;;;;;;;4.60;1.90;;;;;;;;;;5012382;28;20224;-67
2022/12/08 13:29:29;;;;;;;3.70;1.40;;;;;;;;;;5011700;28;20212;-67
2022/12/08 13:31:56;;;;;;;4.87;1.70;;;;;;;;;;5012723;28;20270;-67
2022/12/08 13:34:40;;;;;;;3.27;1.37;;;;;;;;;;5011811;28;20290;-67
2022/12/08 13:37:09;;;;;;;2.20;1.23;;;;;;;;;;5012467;28;20231;-67
2022/12/08 13:39:35;;;;;;;2.90;1.70;;;;;;;;;;5012410;28;20668;-67
2022/12/08 13:42:02;;;;;;;3.67;1.67;;;;;;;;;;5011680;28;20282;-66
2022/12/08 13:44:31;;;;;;;3.53;1.43;;;;;;;;;;5012725;28;20211;-67
2022/12/08 13:46:56;;;;;;;3.47;1.20;;;;;;;;;;5003391;28;20583;-67
2022/12/08 13:49:23;;;;;;;5.17;1.70;;;;;;;;;;4995182;28;20684;-67
2022/12/08 13:51:49;;;;;;;5.20;1.60;;;;;;;;;;5009727;28;20224;-68
2022/12/08 13:54:19;;;;;;;3.87;1.50;;;;;;;;;;5009148;28;20212;-69
2022/12/08 13:56:44;;;;;;;2.83;1.30;;;;;;;;;;5016826;28;20297;-69
2022/12/08 13:59:18;;;;;;;1.80;1.10;;;;;;;;;;5009062;28;20340;-69
2022/12/08 14:01:43;;;;;;;3.50;1.00;;;;;;;;;;4997163;28;20283;-70
2022/12/08 14:04:12;;;;;;;3.43;0.83;;;;;;;;;;4995733;28;20279;-69
2022/12/08 14:06:37;;;;;;;2.20;0.90;;;;;;;;;;4995896;28;20223;-69
2022/12/08 14:09:04;;;;;;;1.83;0.90;;;;;;;;;;4996543;28;20217;-69
2022/12/08 14:11:36;;;;;;;2.67;0.70;;;;;;;;;;4995827;28;20213;-69
2022/12/08 14:14:02;;;;;;;2.67;0.60;;;;;;;;;;4996073;28;20717;-68
2022/12/08 14:16:28;;;;;;;1.73;0.73;;;;;;;;;;4996810;28;20224;-69
2022/12/08 14:18:54;;;;;;;3.90;1.70;;;;;;;;;;4994707;28;20359;-69
2022/12/08 14:21:19;;;;;;;5.80;1.73;;;;;;;;;;4996536;28;20304;-69
2022/12/08 14:23:44;;;;;;;2.03;1.10;;;;;;;;;;4995982;28;20216;-70
2022/12/08 14:26:09;;;;;;;5.63;2.07;;;;;;;;;;4995890;28;20213;-69
2022/12/08 14:28:35;;;;;;;2.20;1.17;;;;;;;;;;4995158;28;20256;-69
2022/12/08 14:31:00;;;;;;;4.83;2.53;;;;;;;;;;4994473;28;20213;-69
2022/12/08 14:33:26;;;;;;;5.73;1.87;;;;;;;;;;4999694;28;20246;-69
2022/12/08 14:35:52;;;;;;;3.13;1.80;;;;;;;;;;5004285;28;20711;-70
2022/12/08 14:38:18;;;;;;;2.87;1.60;;;;;;;;;;4995192;28;20735;-69
2022/12/08 14:40:44;;;;;;;5.43;3.57;;;;;;;;;;4994859;28;20214;-69
2022/12/08 14:43:09;;;;;;;4.53;2.30;;;;;;;;;;4995735;28;20276;-69